sensor_id;sensor_type;location;lat;lon;timestamp;P1;durP1;ratioP1;P2;durP2;ratioP2
13590;SDS011;6866;50.778;7.206;2023-05-28T00:02:08;12.60;;;4.90;;
13590;SDS011;6866;50.778;7.206;2023-05-28T00:04:34;10.05;;;5.10;;
13590;SDS011;6866;50.778;7.206;2023-05-28T00:07:00;13.10;;;5.32;;
13590;SDS011;6866;50.778;7.206;2023-05-28T00:09:25;11.13;;;5.40;;
13590;SDS011;6866;50.778;7.206;2023-05-28T00:11:51;10.75;;;4.97;;
13590;SDS011;6866;50.778;7.206;2023-05-28T00:14:17;10.27;;;5.18;;
13590;SDS011;6866;50.778;7.206;2023-05-28T00:16:42;11.60;;;5.20;;
13590;SDS011;6866;50.778;7.206;2023-05-28T00:19:09;11.65;;;4.97;;
13590;SDS011;6866;50.778;7.206;2023-05-28T00:21:35;12.55;;;5.28;;
13590;SDS011;6866;50.778;7.206;2023-05-28T00:24:01;12.63;;;5.20;;
13590;SDS011;6866;50.778;7.206;2023-05-28T00:26:28;10.07;;;5.30;;
13590;SDS011;6866;50.778;7.206;2023-05-28T00:28:53;14.32;;;5.28;;
13590;SDS011;6866;50.778;7.206;2023-05-28T00:31:19;10.13;;;5.50;;
13590;SDS011;6866;50.778;7.206;2023-05-28T00:33:45;11.38;;;5.30;;
13590;SDS011;6866;50.778;7.206;2023-05-28T00:36:13;8.98;;;5.18;;
13590;SDS011;6866;50.778;7.206;2023-05-28T00:38:39;11.30;;;5.43;;
13590;SDS011;6866;50.778;7.206;2023-05-28T00:41:05;10.13;;;5.30;;
13590;SDS011;6866;50.778;7.206;2023-05-28T00:43:31;11.10;;;5.80;;
13590;SDS011;6866;50.778;7.206;2023-05-28T00:45:57;11.85;;;5.20;;
13590;SDS011;6866;50.778;7.206;2023-05-28T00:48:26;13.05;;;5.75;;
13590;SDS011;6866;50.778;7.206;2023-05-28T00:50:51;10.60;;;5.72;;
13590;SDS011;6866;50.778;7.206;2023-05-28T00:53:18;11.02;;;5.60;;
13590;SDS011;6866;50.778;7.206;2023-05-28T00:55:43;11.35;;;5.53;;
13590;SDS011;6866;50.778;7.206;2023-05-28T00:58:09;10.77;;;5.40;;
13590;SDS011;6866;50.778;7.206;2023-05-28T01:05:39;10.75;;;5.80;;
13590;SDS011;6866;50.778;7.206;2023-05-28T01:08:05;11.30;;;4.97;;
13590;SDS011;6866;50.778;7.206;2023-05-28T01:10:32;11.00;;;5.55;;
13590;SDS011;6866;50.778;7.206;2023-05-28T01:13:00;11.98;;;5.25;;
13590;SDS011;6866;50.778;7.206;2023-05-28T01:15:27;11.15;;;5.47;;
13590;SDS011;6866;50.778;7.206;2023-05-28T01:17:57;12.82;;;5.60;;
13590;SDS011;6866;50.778;7.206;2023-05-28T01:20:26;12.57;;;5.50;;
13590;SDS011;6866;50.778;7.206;2023-05-28T01:22:54;8.20;;;5.22;;
13590;SDS011;6866;50.778;7.206;2023-05-28T01:25:20;12.48;;;5.82;;
13590;SDS011;6866;50.778;7.206;2023-05-28T01:27:47;10.23;;;5.40;;
13590;SDS011;6866;50.778;7.206;2023-05-28T01:30:12;12.40;;;6.38;;
13590;SDS011;6866;50.778;7.206;2023-05-28T01:32:38;12.07;;;5.78;;
13590;SDS011;6866;50.778;7.206;2023-05-28T01:35:04;13.52;;;5.85;;
13590;SDS011;6866;50.778;7.206;2023-05-28T01:37:31;12.05;;;5.85;;
13590;SDS011;6866;50.778;7.206;2023-05-28T01:40:01;12.98;;;6.13;;
13590;SDS011;6866;50.778;7.206;2023-05-28T01:42:30;9.27;;;5.60;;
13590;SDS011;6866;50.778;7.206;2023-05-28T01:44:58;12.68;;;5.75;;
13590;SDS011;6866;50.778;7.206;2023-05-28T01:47:25;13.77;;;6.10;;
13590;SDS011;6866;50.778;7.206;2023-05-28T01:49:51;10.82;;;6.20;;
13590;SDS011;6866;50.778;7.206;2023-05-28T01:52:16;13.85;;;6.03;;
13590;SDS011;6866;50.778;7.206;2023-05-28T01:54:42;11.73;;;6.13;;
13590;SDS011;6866;50.778;7.206;2023-05-28T01:57:07;12.13;;;6.38;;
13590;SDS011;6866;50.778;7.206;2023-05-28T01:59:33;12.23;;;6.72;;
13590;SDS011;6866;50.778;7.206;2023-05-28T02:01:58;11.90;;;5.82;;
13590;SDS011;6866;50.778;7.206;2023-05-28T02:04:24;12.20;;;6.07;;
13590;SDS011;6866;50.778;7.206;2023-05-28T02:06:50;11.05;;;5.85;;
13590;SDS011;6866;50.778;7.206;2023-05-28T02:09:16;14.00;;;6.32;;
13590;SDS011;6866;50.778;7.206;2023-05-28T02:11:42;14.35;;;6.38;;
13590;SDS011;6866;50.778;7.206;2023-05-28T02:14:07;14.27;;;7.15;;
13590;SDS011;6866;50.778;7.206;2023-05-28T02:16:34;12.50;;;7.05;;
13590;SDS011;6866;50.778;7.206;2023-05-28T02:19:00;13.65;;;6.38;;
13590;SDS011;6866;50.778;7.206;2023-05-28T02:21:26;21.05;;;6.50;;
13590;SDS011;6866;50.778;7.206;2023-05-28T02:23:53;12.73;;;6.00;;
13590;SDS011;6866;50.778;7.206;2023-05-28T02:26:18;13.35;;;6.40;;
13590;SDS011;6866;50.778;7.206;2023-05-28T02:28:45;14.75;;;6.82;;
13590;SDS011;6866;50.778;7.206;2023-05-28T02:31:10;12.73;;;6.90;;
13590;SDS011;6866;50.778;7.206;2023-05-28T02:33:40;13.98;;;6.28;;
13590;SDS011;6866;50.778;7.206;2023-05-28T02:36:07;12.70;;;6.38;;
13590;SDS011;6866;50.778;7.206;2023-05-28T02:38:33;13.18;;;5.68;;
13590;SDS011;6866;50.778;7.206;2023-05-28T02:40:59;11.60;;;5.65;;
13590;SDS011;6866;50.778;7.206;2023-05-28T02:43:25;12.32;;;5.72;;
13590;SDS011;6866;50.778;7.206;2023-05-28T02:45:50;16.08;;;5.97;;
13590;SDS011;6866;50.778;7.206;2023-05-28T02:48:16;11.55;;;5.88;;
13590;SDS011;6866;50.778;7.206;2023-05-28T02:50:41;12.27;;;5.85;;
13590;SDS011;6866;50.778;7.206;2023-05-28T02:53:07;11.18;;;5.38;;
13590;SDS011;6866;50.778;7.206;2023-05-28T02:55:32;13.48;;;5.57;;
13590;SDS011;6866;50.778;7.206;2023-05-28T02:57:58;9.27;;;5.50;;
13590;SDS011;6866;50.778;7.206;2023-05-28T03:00:24;11.40;;;5.85;;
13590;SDS011;6866;50.778;7.206;2023-05-28T03:02:50;12.15;;;5.82;;
13590;SDS011;6866;50.778;7.206;2023-05-28T03:05:15;11.52;;;6.28;;
13590;SDS011;6866;50.778;7.206;2023-05-28T03:07:41;11.23;;;6.18;;
13590;SDS011;6866;50.778;7.206;2023-05-28T03:10:07;13.48;;;6.03;;
13590;SDS011;6866;50.778;7.206;2023-05-28T03:12:33;10.35;;;5.63;;
13590;SDS011;6866;50.778;7.206;2023-05-28T03:14:58;13.27;;;6.20;;
13590;SDS011;6866;50.778;7.206;2023-05-28T03:17:24;13.60;;;5.78;;
13590;SDS011;6866;50.778;7.206;2023-05-28T03:19:50;15.40;;;6.65;;
13590;SDS011;6866;50.778;7.206;2023-05-28T03:22:15;14.07;;;7.00;;
13590;SDS011;6866;50.778;7.206;2023-05-28T03:24:41;15.80;;;6.68;;
13590;SDS011;6866;50.778;7.206;2023-05-28T03:27:07;12.75;;;6.90;;
13590;SDS011;6866;50.778;7.206;2023-05-28T03:29:32;12.35;;;6.97;;
13590;SDS011;6866;50.778;7.206;2023-05-28T03:31:58;10.63;;;6.25;;
13590;SDS011;6866;50.778;7.206;2023-05-28T03:34:23;16.38;;;7.43;;
13590;SDS011;6866;50.778;7.206;2023-05-28T03:36:49;16.35;;;7.28;;
13590;SDS011;6866;50.778;7.206;2023-05-28T03:39:15;16.25;;;6.90;;
13590;SDS011;6866;50.778;7.206;2023-05-28T03:41:41;11.10;;;6.28;;
13590;SDS011;6866;50.778;7.206;2023-05-28T03:44:09;11.18;;;6.10;;
13590;SDS011;6866;50.778;7.206;2023-05-28T03:46:35;10.48;;;6.10;;
13590;SDS011;6866;50.778;7.206;2023-05-28T03:49:00;12.35;;;5.85;;
13590;SDS011;6866;50.778;7.206;2023-05-28T03:51:26;11.35;;;6.10;;
13590;SDS011;6866;50.778;7.206;2023-05-28T03:53:51;11.35;;;6.00;;
13590;SDS011;6866;50.778;7.206;2023-05-28T03:56:17;13.63;;;5.88;;
13590;SDS011;6866;50.778;7.206;2023-05-28T03:58:44;12.30;;;5.78;;
13590;SDS011;6866;50.778;7.206;2023-05-28T04:01:10;14.20;;;6.50;;
13590;SDS011;6866;50.778;7.206;2023-05-28T04:03:35;12.65;;;6.20;;
13590;SDS011;6866;50.778;7.206;2023-05-28T04:06:01;9.57;;;5.72;;
13590;SDS011;6866;50.778;7.206;2023-05-28T04:08:27;12.15;;;6.30;;
13590;SDS011;6866;50.778;7.206;2023-05-28T04:10:53;12.07;;;6.15;;
13590;SDS011;6866;50.778;7.206;2023-05-28T04:13:18;14.77;;;6.32;;
13590;SDS011;6866;50.778;7.206;2023-05-28T04:15:44;14.30;;;6.05;;
13590;SDS011;6866;50.778;7.206;2023-05-28T04:18:10;12.65;;;5.53;;
13590;SDS011;6866;50.778;7.206;2023-05-28T04:20:35;10.25;;;5.75;;
13590;SDS011;6866;50.778;7.206;2023-05-28T04:23:01;12.02;;;5.90;;
13590;SDS011;6866;50.778;7.206;2023-05-28T04:25:27;11.77;;;5.70;;
13590;SDS011;6866;50.778;7.206;2023-05-28T04:27:53;9.80;;;5.82;;
13590;SDS011;6866;50.778;7.206;2023-05-28T04:30:19;12.10;;;5.88;;
13590;SDS011;6866;50.778;7.206;2023-05-28T04:32:47;14.48;;;6.55;;
13590;SDS011;6866;50.778;7.206;2023-05-28T04:35:16;11.18;;;6.28;;
13590;SDS011;6866;50.778;7.206;2023-05-28T04:37:41;12.10;;;6.18;;
13590;SDS011;6866;50.778;7.206;2023-05-28T04:40:07;12.40;;;6.88;;
13590;SDS011;6866;50.778;7.206;2023-05-28T04:42:34;17.35;;;6.85;;
13590;SDS011;6866;50.778;7.206;2023-05-28T04:45:01;13.02;;;6.80;;
13590;SDS011;6866;50.778;7.206;2023-05-28T04:47:26;16.23;;;7.28;;
13590;SDS011;6866;50.778;7.206;2023-05-28T04:49:52;15.23;;;6.60;;
13590;SDS011;6866;50.778;7.206;2023-05-28T04:52:17;13.23;;;6.90;;
13590;SDS011;6866;50.778;7.206;2023-05-28T04:54:46;12.75;;;7.88;;
13590;SDS011;6866;50.778;7.206;2023-05-28T04:57:11;13.55;;;7.15;;
13590;SDS011;6866;50.778;7.206;2023-05-28T04:59:37;12.48;;;6.32;;
13590;SDS011;6866;50.778;7.206;2023-05-28T05:02:03;12.95;;;6.43;;
13590;SDS011;6866;50.778;7.206;2023-05-28T05:04:28;13.75;;;6.53;;
13590;SDS011;6866;50.778;7.206;2023-05-28T05:06:54;13.23;;;6.40;;
13590;SDS011;6866;50.778;7.206;2023-05-28T05:09:19;12.30;;;6.40;;
13590;SDS011;6866;50.778;7.206;2023-05-28T05:11:45;10.93;;;6.15;;
13590;SDS011;6866;50.778;7.206;2023-05-28T05:14:11;12.70;;;6.40;;
13590;SDS011;6866;50.778;7.206;2023-05-28T05:16:37;9.13;;;5.50;;
13590;SDS011;6866;50.778;7.206;2023-05-28T05:19:02;11.95;;;6.25;;
13590;SDS011;6866;50.778;7.206;2023-05-28T05:21:28;12.70;;;6.25;;
13590;SDS011;6866;50.778;7.206;2023-05-28T05:23:53;10.35;;;6.22;;
13590;SDS011;6866;50.778;7.206;2023-05-28T05:26:19;12.70;;;6.07;;
13590;SDS011;6866;50.778;7.206;2023-05-28T05:28:45;10.40;;;5.88;;
13590;SDS011;6866;50.778;7.206;2023-05-28T05:31:11;9.45;;;5.68;;
13590;SDS011;6866;50.778;7.206;2023-05-28T05:33:37;9.65;;;5.70;;
13590;SDS011;6866;50.778;7.206;2023-05-28T05:36:02;12.63;;;6.30;;
13590;SDS011;6866;50.778;7.206;2023-05-28T05:38:29;10.50;;;6.18;;
13590;SDS011;6866;50.778;7.206;2023-05-28T05:40:55;9.88;;;5.30;;
13590;SDS011;6866;50.778;7.206;2023-05-28T05:43:21;10.38;;;5.35;;
13590;SDS011;6866;50.778;7.206;2023-05-28T05:45:47;10.55;;;5.40;;
13590;SDS011;6866;50.778;7.206;2023-05-28T05:48:12;10.02;;;5.40;;
13590;SDS011;6866;50.778;7.206;2023-05-28T05:50:48;9.98;;;5.20;;
13590;SDS011;6866;50.778;7.206;2023-05-28T05:53:14;11.55;;;5.50;;
13590;SDS011;6866;50.778;7.206;2023-05-28T05:55:40;11.85;;;5.18;;
13590;SDS011;6866;50.778;7.206;2023-05-28T05:58:06;10.52;;;5.35;;
13590;SDS011;6866;50.778;7.206;2023-05-28T06:00:31;9.93;;;5.50;;
13590;SDS011;6866;50.778;7.206;2023-05-28T06:02:58;13.07;;;5.80;;
13590;SDS011;6866;50.778;7.206;2023-05-28T06:05:23;9.65;;;5.30;;
13590;SDS011;6866;50.778;7.206;2023-05-28T06:07:49;11.93;;;5.20;;
13590;SDS011;6866;50.778;7.206;2023-05-28T06:10:14;9.45;;;5.20;;
13590;SDS011;6866;50.778;7.206;2023-05-28T06:12:40;12.75;;;5.35;;
13590;SDS011;6866;50.778;7.206;2023-05-28T06:15:05;9.48;;;4.88;;
13590;SDS011;6866;50.778;7.206;2023-05-28T06:17:31;9.52;;;4.72;;
13590;SDS011;6866;50.778;7.206;2023-05-28T06:19:58;9.38;;;4.75;;
13590;SDS011;6866;50.778;7.206;2023-05-28T06:22:24;8.00;;;4.65;;
13590;SDS011;6866;50.778;7.206;2023-05-28T06:24:50;11.30;;;4.50;;
13590;SDS011;6866;50.778;7.206;2023-05-28T06:27:17;10.70;;;5.03;;
13590;SDS011;6866;50.778;7.206;2023-05-28T06:29:43;10.55;;;4.82;;
13590;SDS011;6866;50.778;7.206;2023-05-28T06:32:08;9.07;;;5.55;;
13590;SDS011;6866;50.778;7.206;2023-05-28T06:34:34;9.60;;;4.57;;
13590;SDS011;6866;50.778;7.206;2023-05-28T06:37:00;7.43;;;4.55;;
13590;SDS011;6866;50.778;7.206;2023-05-28T06:39:27;9.32;;;4.22;;
13590;SDS011;6866;50.778;7.206;2023-05-28T06:41:52;9.73;;;4.55;;
13590;SDS011;6866;50.778;7.206;2023-05-28T06:44:18;9.20;;;4.15;;
13590;SDS011;6866;50.778;7.206;2023-05-28T06:46:44;8.43;;;4.20;;
13590;SDS011;6866;50.778;7.206;2023-05-28T06:49:09;8.82;;;4.25;;
13590;SDS011;6866;50.778;7.206;2023-05-28T07:35:23;7.38;;;3.35;;
13590;SDS011;6866;50.778;7.206;2023-05-28T07:40:14;9.37;;;4.10;;
13590;SDS011;6866;50.778;7.206;2023-05-28T08:53:10;7.15;;;3.60;;
13590;SDS011;6866;50.778;7.206;2023-05-28T08:55:40;9.60;;;3.78;;
13590;SDS011;6866;50.778;7.206;2023-05-28T08:58:06;7.65;;;3.65;;
13590;SDS011;6866;50.778;7.206;2023-05-28T09:00:32;9.07;;;3.47;;
13590;SDS011;6866;50.778;7.206;2023-05-28T09:02:58;7.05;;;3.53;;
13590;SDS011;6866;50.778;7.206;2023-05-28T09:05:24;7.97;;;3.63;;
13590;SDS011;6866;50.778;7.206;2023-05-28T09:07:50;8.90;;;3.75;;
13590;SDS011;6866;50.778;7.206;2023-05-28T09:10:15;7.40;;;3.58;;
13590;SDS011;6866;50.778;7.206;2023-05-28T09:12:56;7.45;;;3.58;;
13590;SDS011;6866;50.778;7.206;2023-05-28T09:15:25;7.90;;;3.65;;
13590;SDS011;6866;50.778;7.206;2023-05-28T09:17:50;8.45;;;3.65;;
13590;SDS011;6866;50.778;7.206;2023-05-28T09:20:16;8.43;;;4.10;;
13590;SDS011;6866;50.778;7.206;2023-05-28T09:22:42;7.93;;;3.70;;
13590;SDS011;6866;50.778;7.206;2023-05-28T09:25:08;6.68;;;3.30;;
13590;SDS011;6866;50.778;7.206;2023-05-28T09:27:34;7.38;;;3.30;;
13590;SDS011;6866;50.778;7.206;2023-05-28T09:30:07;8.23;;;3.33;;
13590;SDS011;6866;50.778;7.206;2023-05-28T09:32:33;7.70;;;3.60;;
13590;SDS011;6866;50.778;7.206;2023-05-28T09:34:59;10.88;;;3.72;;
13590;SDS011;6866;50.778;7.206;2023-05-28T09:37:27;7.40;;;3.30;;
13590;SDS011;6866;50.778;7.206;2023-05-28T09:40:00;7.68;;;3.50;;
13590;SDS011;6866;50.778;7.206;2023-05-28T09:42:27;7.18;;;3.78;;
13590;SDS011;6866;50.778;7.206;2023-05-28T09:44:58;9.23;;;3.47;;
13590;SDS011;6866;50.778;7.206;2023-05-28T09:47:25;9.80;;;3.53;;
13590;SDS011;6866;50.778;7.206;2023-05-28T09:49:51;8.15;;;3.80;;
13590;SDS011;6866;50.778;7.206;2023-05-28T09:52:17;7.70;;;3.80;;
13590;SDS011;6866;50.778;7.206;2023-05-28T09:54:49;10.82;;;3.55;;
13590;SDS011;6866;50.778;7.206;2023-05-28T09:57:17;7.95;;;3.60;;
13590;SDS011;6866;50.778;7.206;2023-05-28T09:59:48;6.95;;;3.70;;
13590;SDS011;6866;50.778;7.206;2023-05-28T10:04:51;8.57;;;3.70;;
13590;SDS011;6866;50.778;7.206;2023-05-28T10:07:19;8.88;;;3.78;;
13590;SDS011;6866;50.778;7.206;2023-05-28T10:09:46;7.95;;;3.45;;
13590;SDS011;6866;50.778;7.206;2023-05-28T10:12:16;9.02;;;3.72;;
13590;SDS011;6866;50.778;7.206;2023-05-28T10:14:45;8.10;;;3.58;;
13590;SDS011;6866;50.778;7.206;2023-05-28T10:17:11;7.40;;;3.63;;
13590;SDS011;6866;50.778;7.206;2023-05-28T10:19:38;9.38;;;3.60;;
13590;SDS011;6866;50.778;7.206;2023-05-28T10:22:05;7.03;;;4.22;;
13590;SDS011;6866;50.778;7.206;2023-05-28T10:24:32;8.00;;;3.97;;
13590;SDS011;6866;50.778;7.206;2023-05-28T10:26:58;9.18;;;4.03;;
13590;SDS011;6866;50.778;7.206;2023-05-28T10:29:23;9.85;;;4.22;;
13590;SDS011;6866;50.778;7.206;2023-05-28T10:31:56;7.93;;;4.20;;
13590;SDS011;6866;50.778;7.206;2023-05-28T10:34:31;7.20;;;3.78;;
13590;SDS011;6866;50.778;7.206;2023-05-28T10:36:59;7.75;;;3.60;;
13590;SDS011;6866;50.778;7.206;2023-05-28T10:39:36;10.33;;;3.47;;
13590;SDS011;6866;50.778;7.206;2023-05-28T10:42:09;6.47;;;3.40;;
13590;SDS011;6866;50.778;7.206;2023-05-28T10:47:38;9.00;;;3.60;;
13590;SDS011;6866;50.778;7.206;2023-05-28T10:52:34;6.45;;;3.40;;
13590;SDS011;6866;50.778;7.206;2023-05-28T10:55:01;7.25;;;3.40;;
13590;SDS011;6866;50.778;7.206;2023-05-28T10:57:42;8.50;;;3.85;;
13590;SDS011;6866;50.778;7.206;2023-05-28T11:00:10;7.85;;;3.55;;
13590;SDS011;6866;50.778;7.206;2023-05-28T11:02:39;8.80;;;3.50;;
13590;SDS011;6866;50.778;7.206;2023-05-28T11:05:07;7.35;;;3.40;;
13590;SDS011;6866;50.778;7.206;2023-05-28T11:07:33;8.52;;;3.72;;
13590;SDS011;6866;50.778;7.206;2023-05-28T11:10:01;7.47;;;3.58;;
13590;SDS011;6866;50.778;7.206;2023-05-28T11:12:30;8.90;;;3.58;;
13590;SDS011;6866;50.778;7.206;2023-05-28T11:14:56;7.15;;;3.60;;
13590;SDS011;6866;50.778;7.206;2023-05-28T11:17:22;7.80;;;3.50;;
13590;SDS011;6866;50.778;7.206;2023-05-28T11:19:49;8.63;;;3.40;;
13590;SDS011;6866;50.778;7.206;2023-05-28T11:22:16;8.02;;;3.88;;
13590;SDS011;6866;50.778;7.206;2023-05-28T11:24:53;7.05;;;3.25;;
13590;SDS011;6866;50.778;7.206;2023-05-28T11:27:23;9.25;;;5.93;;
13590;SDS011;6866;50.778;7.206;2023-05-28T11:29:54;7.68;;;3.47;;
13590;SDS011;6866;50.778;7.206;2023-05-28T11:32:21;6.60;;;3.28;;
13590;SDS011;6866;50.778;7.206;2023-05-28T11:34:51;8.00;;;3.80;;
13590;SDS011;6866;50.778;7.206;2023-05-28T11:37:24;6.25;;;3.72;;
13590;SDS011;6866;50.778;7.206;2023-05-28T11:39:51;7.10;;;3.80;;
13590;SDS011;6866;50.778;7.206;2023-05-28T11:42:18;7.47;;;3.67;;
13590;SDS011;6866;50.778;7.206;2023-05-28T11:44:45;7.78;;;4.05;;
13590;SDS011;6866;50.778;7.206;2023-05-28T11:47:11;6.15;;;4.13;;
13590;SDS011;6866;50.778;7.206;2023-05-28T11:49:37;8.15;;;4.13;;
13590;SDS011;6866;50.778;7.206;2023-05-28T11:52:02;7.18;;;4.20;;
13590;SDS011;6866;50.778;7.206;2023-05-28T11:54:28;6.72;;;4.07;;
13590;SDS011;6866;50.778;7.206;2023-05-28T11:56:54;7.30;;;4.18;;
13590;SDS011;6866;50.778;7.206;2023-05-28T11:59:22;8.25;;;4.60;;
13590;SDS011;6866;50.778;7.206;2023-05-28T12:01:54;7.70;;;4.68;;
13590;SDS011;6866;50.778;7.206;2023-05-28T12:04:37;9.18;;;4.80;;
13590;SDS011;6866;50.778;7.206;2023-05-28T12:07:02;10.25;;;4.95;;
13590;SDS011;6866;50.778;7.206;2023-05-28T12:09:28;7.68;;;4.50;;
13590;SDS011;6866;50.778;7.206;2023-05-28T12:12:09;7.78;;;4.13;;
13590;SDS011;6866;50.778;7.206;2023-05-28T12:14:36;7.80;;;4.72;;
13590;SDS011;6866;50.778;7.206;2023-05-28T12:17:05;7.43;;;4.68;;
13590;SDS011;6866;50.778;7.206;2023-05-28T12:19:33;9.20;;;4.65;;
13590;SDS011;6866;50.778;7.206;2023-05-28T12:22:00;8.77;;;4.93;;
13590;SDS011;6866;50.778;7.206;2023-05-28T12:24:27;9.35;;;4.43;;
13590;SDS011;6866;50.778;7.206;2023-05-28T12:26:53;8.00;;;4.40;;
13590;SDS011;6866;50.778;7.206;2023-05-28T12:29:19;9.38;;;4.97;;
13590;SDS011;6866;50.778;7.206;2023-05-28T12:31:44;9.02;;;4.97;;
13590;SDS011;6866;50.778;7.206;2023-05-28T12:34:10;8.10;;;4.75;;
13590;SDS011;6866;50.778;7.206;2023-05-28T12:36:37;8.00;;;4.60;;
13590;SDS011;6866;50.778;7.206;2023-05-28T12:39:03;8.27;;;4.90;;
13590;SDS011;6866;50.778;7.206;2023-05-28T12:41:30;8.98;;;5.43;;
13590;SDS011;6866;50.778;7.206;2023-05-28T12:43:55;8.70;;;5.47;;
13590;SDS011;6866;50.778;7.206;2023-05-28T12:46:21;7.53;;;4.93;;
13590;SDS011;6866;50.778;7.206;2023-05-28T12:48:47;9.32;;;5.03;;
13590;SDS011;6866;50.778;7.206;2023-05-28T12:51:12;8.25;;;4.88;;
13590;SDS011;6866;50.778;7.206;2023-05-28T12:53:39;6.95;;;4.53;;
13590;SDS011;6866;50.778;7.206;2023-05-28T12:56:04;10.68;;;4.80;;
13590;SDS011;6866;50.778;7.206;2023-05-28T12:58:30;7.32;;;4.78;;
13590;SDS011;6866;50.778;7.206;2023-05-28T13:00:55;7.80;;;4.65;;
13590;SDS011;6866;50.778;7.206;2023-05-28T13:03:21;8.55;;;5.75;;
13590;SDS011;6866;50.778;7.206;2023-05-28T13:05:46;8.20;;;5.05;;
13590;SDS011;6866;50.778;7.206;2023-05-28T13:08:12;9.50;;;5.03;;
13590;SDS011;6866;50.778;7.206;2023-05-28T13:10:37;7.88;;;4.93;;
13590;SDS011;6866;50.778;7.206;2023-05-28T13:13:03;8.70;;;5.38;;
13590;SDS011;6866;50.778;7.206;2023-05-28T13:15:28;10.02;;;5.15;;
13590;SDS011;6866;50.778;7.206;2023-05-28T13:17:54;9.20;;;4.68;;
13590;SDS011;6866;50.778;7.206;2023-05-28T13:20:20;8.15;;;4.65;;
13590;SDS011;6866;50.778;7.206;2023-05-28T13:22:45;7.82;;;4.82;;
13590;SDS011;6866;50.778;7.206;2023-05-28T13:25:11;8.38;;;4.97;;
13590;SDS011;6866;50.778;7.206;2023-05-28T13:27:38;14.95;;;10.70;;
13590;SDS011;6866;50.778;7.206;2023-05-28T13:30:03;9.20;;;6.40;;
13590;SDS011;6866;50.778;7.206;2023-05-28T13:32:30;10.82;;;5.18;;
13590;SDS011;6866;50.778;7.206;2023-05-28T13:34:56;7.15;;;4.70;;
13590;SDS011;6866;50.778;7.206;2023-05-28T13:37:21;11.05;;;5.18;;
13590;SDS011;6866;50.778;7.206;2023-05-28T13:39:47;8.02;;;5.10;;
13590;SDS011;6866;50.778;7.206;2023-05-28T13:42:13;8.57;;;4.80;;
13590;SDS011;6866;50.778;7.206;2023-05-28T13:47:13;8.32;;;4.95;;
13590;SDS011;6866;50.778;7.206;2023-05-28T13:49:40;7.95;;;4.93;;
13590;SDS011;6866;50.778;7.206;2023-05-28T13:52:06;8.77;;;4.80;;
13590;SDS011;6866;50.778;7.206;2023-05-28T13:54:32;8.63;;;4.82;;
13590;SDS011;6866;50.778;7.206;2023-05-28T13:56:57;7.90;;;4.63;;
13590;SDS011;6866;50.778;7.206;2023-05-28T13:59:23;7.13;;;4.70;;
13590;SDS011;6866;50.778;7.206;2023-05-28T14:01:49;8.77;;;4.78;;
13590;SDS011;6866;50.778;7.206;2023-05-28T14:04:14;8.48;;;5.13;;
13590;SDS011;6866;50.778;7.206;2023-05-28T14:06:40;7.68;;;4.95;;
13590;SDS011;6866;50.778;7.206;2023-05-28T14:09:05;8.18;;;4.63;;
13590;SDS011;6866;50.778;7.206;2023-05-28T14:11:31;8.93;;;4.88;;
13590;SDS011;6866;50.778;7.206;2023-05-28T14:13:57;7.30;;;4.30;;
13590;SDS011;6866;50.778;7.206;2023-05-28T14:16:22;8.57;;;4.72;;
13590;SDS011;6866;50.778;7.206;2023-05-28T14:18:48;8.02;;;4.53;;
13590;SDS011;6866;50.778;7.206;2023-05-28T14:21:13;8.40;;;4.60;;
13590;SDS011;6866;50.778;7.206;2023-05-28T14:23:39;8.07;;;4.80;;
13590;SDS011;6866;50.778;7.206;2023-05-28T14:26:04;8.85;;;5.05;;
13590;SDS011;6866;50.778;7.206;2023-05-28T14:28:30;7.50;;;4.85;;
13590;SDS011;6866;50.778;7.206;2023-05-28T14:30:56;8.77;;;4.65;;
13590;SDS011;6866;50.778;7.206;2023-05-28T14:33:21;8.63;;;4.78;;
13590;SDS011;6866;50.778;7.206;2023-05-28T14:35:47;7.90;;;4.68;;
13590;SDS011;6866;50.778;7.206;2023-05-28T14:38:12;8.88;;;4.65;;
13590;SDS011;6866;50.778;7.206;2023-05-28T14:40:38;7.55;;;4.47;;
13590;SDS011;6866;50.778;7.206;2023-05-28T14:43:04;7.95;;;4.70;;
13590;SDS011;6866;50.778;7.206;2023-05-28T14:45:29;7.00;;;4.15;;
13590;SDS011;6866;50.778;7.206;2023-05-28T14:47:55;7.75;;;4.93;;
13590;SDS011;6866;50.778;7.206;2023-05-28T14:50:21;8.20;;;4.88;;
13590;SDS011;6866;50.778;7.206;2023-05-28T14:52:46;10.15;;;4.78;;
13590;SDS011;6866;50.778;7.206;2023-05-28T14:55:12;8.07;;;4.70;;
13590;SDS011;6866;50.778;7.206;2023-05-28T14:57:38;6.38;;;3.80;;
13590;SDS011;6866;50.778;7.206;2023-05-28T15:00:06;7.53;;;3.70;;
13590;SDS011;6866;50.778;7.206;2023-05-28T15:02:32;8.18;;;4.00;;
13590;SDS011;6866;50.778;7.206;2023-05-28T15:04:59;7.40;;;4.30;;
13590;SDS011;6866;50.778;7.206;2023-05-28T15:07:24;9.07;;;4.50;;
13590;SDS011;6866;50.778;7.206;2023-05-28T15:09:50;11.30;;;3.85;;
13590;SDS011;6866;50.778;7.206;2023-05-28T15:12:16;7.70;;;4.00;;
13590;SDS011;6866;50.778;7.206;2023-05-28T15:14:41;7.28;;;3.38;;
13590;SDS011;6866;50.778;7.206;2023-05-28T15:17:07;10.18;;;3.38;;
13590;SDS011;6866;50.778;7.206;2023-05-28T15:19:33;7.82;;;3.70;;
13590;SDS011;6866;50.778;7.206;2023-05-28T15:21:59;8.75;;;3.55;;
13590;SDS011;6866;50.778;7.206;2023-05-28T15:24:24;6.20;;;3.20;;
13590;SDS011;6866;50.778;7.206;2023-05-28T15:26:50;8.38;;;3.72;;
13590;SDS011;6866;50.778;7.206;2023-05-28T15:29:16;8.93;;;3.90;;
13590;SDS011;6866;50.778;7.206;2023-05-28T15:31:45;8.60;;;4.05;;
13590;SDS011;6866;50.778;7.206;2023-05-28T15:34:12;7.68;;;3.70;;
13590;SDS011;6866;50.778;7.206;2023-05-28T15:36:38;7.32;;;3.47;;
13590;SDS011;6866;50.778;7.206;2023-05-28T15:39:04;7.75;;;3.70;;
13590;SDS011;6866;50.778;7.206;2023-05-28T15:41:31;8.15;;;3.25;;
13590;SDS011;6866;50.778;7.206;2023-05-28T15:43:58;6.75;;;3.13;;
13590;SDS011;6866;50.778;7.206;2023-05-28T15:46:24;7.70;;;3.65;;
13590;SDS011;6866;50.778;7.206;2023-05-28T15:48:50;8.40;;;3.38;;
13590;SDS011;6866;50.778;7.206;2023-05-28T15:51:15;7.70;;;3.42;;
13590;SDS011;6866;50.778;7.206;2023-05-28T15:53:41;8.48;;;3.50;;
13590;SDS011;6866;50.778;7.206;2023-05-28T15:56:07;7.75;;;3.60;;
13590;SDS011;6866;50.778;7.206;2023-05-28T15:58:33;6.03;;;3.17;;
13590;SDS011;6866;50.778;7.206;2023-05-28T16:00:58;8.35;;;3.40;;
13590;SDS011;6866;50.778;7.206;2023-05-28T16:03:24;5.97;;;2.83;;
13590;SDS011;6866;50.778;7.206;2023-05-28T16:05:51;5.68;;;2.83;;
13590;SDS011;6866;50.778;7.206;2023-05-28T16:08:17;7.43;;;3.05;;
13590;SDS011;6866;50.778;7.206;2023-05-28T16:10:43;6.15;;;2.83;;
13590;SDS011;6866;50.778;7.206;2023-05-28T16:13:09;6.85;;;2.97;;
13590;SDS011;6866;50.778;7.206;2023-05-28T16:15:37;8.18;;;2.72;;
13590;SDS011;6866;50.778;7.206;2023-05-28T16:18:05;5.07;;;2.78;;
13590;SDS011;6866;50.778;7.206;2023-05-28T16:20:32;8.27;;;2.95;;
13590;SDS011;6866;50.778;7.206;2023-05-28T16:22:59;7.22;;;2.92;;
13590;SDS011;6866;50.778;7.206;2023-05-28T16:25:25;6.07;;;2.80;;
13590;SDS011;6866;50.778;7.206;2023-05-28T16:27:52;5.70;;;2.97;;
13590;SDS011;6866;50.778;7.206;2023-05-28T16:30:21;8.80;;;4.35;;
13590;SDS011;6866;50.778;7.206;2023-05-28T16:32:48;6.85;;;2.85;;
13590;SDS011;6866;50.778;7.206;2023-05-28T16:35:15;8.32;;;2.70;;
13590;SDS011;6866;50.778;7.206;2023-05-28T16:37:42;5.60;;;2.80;;
13590;SDS011;6866;50.778;7.206;2023-05-28T16:40:07;4.97;;;2.70;;
13590;SDS011;6866;50.778;7.206;2023-05-28T16:42:35;7.57;;;2.83;;
13590;SDS011;6866;50.778;7.206;2023-05-28T16:45:03;4.95;;;2.60;;
13590;SDS011;6866;50.778;7.206;2023-05-28T16:47:29;5.28;;;2.50;;
13590;SDS011;6866;50.778;7.206;2023-05-28T16:50:01;5.75;;;2.55;;
13590;SDS011;6866;50.778;7.206;2023-05-28T16:52:28;7.25;;;3.13;;
13590;SDS011;6866;50.778;7.206;2023-05-28T16:54:53;5.85;;;2.70;;
13590;SDS011;6866;50.778;7.206;2023-05-28T16:57:20;5.32;;;2.63;;
13590;SDS011;6866;50.778;7.206;2023-05-28T16:59:50;4.75;;;2.70;;
13590;SDS011;6866;50.778;7.206;2023-05-28T17:02:16;5.78;;;2.58;;
13590;SDS011;6866;50.778;7.206;2023-05-28T17:04:44;6.85;;;2.75;;